sensor_id;sensor_type;location;lat;lon;timestamp;P1;durP1;ratioP1;P2;durP2;ratioP2
71667;SDS011;59504;54.806;9.640;2023-02-15T00:02:28;72.38;;;26.83;;
71667;SDS011;59504;54.806;9.640;2023-02-15T00:04:49;76.32;;;27.63;;
71667;SDS011;59504;54.806;9.640;2023-02-15T00:07:10;71.13;;;26.30;;
71667;SDS011;59504;54.806;9.640;2023-02-15T00:09:31;69.22;;;24.83;;
71667;SDS011;59504;54.806;9.640;2023-02-15T00:11:52;82.75;;;28.40;;
71667;SDS011;59504;54.806;9.640;2023-02-15T00:14:14;71.28;;;26.30;;
71667;SDS011;59504;54.806;9.640;2023-02-15T00:16:40;66.80;;;25.30;;
71667;SDS011;59504;54.806;9.640;2023-02-15T00:19:03;79.95;;;26.75;;
71667;SDS011;59504;54.806;9.640;2023-02-15T00:21:24;70.30;;;25.85;;
71667;SDS011;59504;54.806;9.640;2023-02-15T00:23:45;70.80;;;24.33;;
71667;SDS011;59504;54.806;9.640;2023-02-15T00:26:09;74.55;;;26.67;;
71667;SDS011;59504;54.806;9.640;2023-02-15T00:28:31;67.10;;;24.27;;
71667;SDS011;59504;54.806;9.640;2023-02-15T00:30:52;67.45;;;24.58;;
71667;SDS011;59504;54.806;9.640;2023-02-15T00:33:13;63.97;;;23.15;;
71667;SDS011;59504;54.806;9.640;2023-02-15T00:35:34;64.30;;;22.33;;
71667;SDS011;59504;54.806;9.640;2023-02-15T00:37:55;104.63;;;24.67;;
71667;SDS011;59504;54.806;9.640;2023-02-15T00:43:41;99.95;;;21.08;;
71667;SDS011;59504;54.806;9.640;2023-02-15T00:46:02;50.45;;;18.33;;
71667;SDS011;59504;54.806;9.640;2023-02-15T00:48:24;68.50;;;22.40;;
71667;SDS011;59504;54.806;9.640;2023-02-15T00:50:46;79.72;;;24.38;;
71667;SDS011;59504;54.806;9.640;2023-02-15T00:53:09;78.50;;;25.02;;
71667;SDS011;59504;54.806;9.640;2023-02-15T00:55:30;78.05;;;27.25;;
71667;SDS011;59504;54.806;9.640;2023-02-15T00:57:51;73.65;;;24.92;;
71667;SDS011;59504;54.806;9.640;2023-02-15T01:00:12;72.60;;;25.27;;
71667;SDS011;59504;54.806;9.640;2023-02-15T01:02:33;85.90;;;28.23;;
71667;SDS011;59504;54.806;9.640;2023-02-15T01:04:54;89.22;;;28.38;;
71667;SDS011;59504;54.806;9.640;2023-02-15T01:07:15;80.88;;;27.50;;
71667;SDS011;59504;54.806;9.640;2023-02-15T01:09:36;74.53;;;26.13;;
71667;SDS011;59504;54.806;9.640;2023-02-15T01:11:57;80.78;;;24.70;;
71667;SDS011;59504;54.806;9.640;2023-02-15T01:14:18;223.23;;;26.65;;
71667;SDS011;59504;54.806;9.640;2023-02-15T01:16:39;133.68;;;26.67;;
71667;SDS011;59504;54.806;9.640;2023-02-15T01:19:00;83.97;;;28.20;;
71667;SDS011;59504;54.806;9.640;2023-02-15T01:21:23;101.75;;;29.80;;
71667;SDS011;59504;54.806;9.640;2023-02-15T01:23:46;105.60;;;28.73;;
71667;SDS011;59504;54.806;9.640;2023-02-15T01:26:07;188.63;;;29.00;;
71667;SDS011;59504;54.806;9.640;2023-02-15T01:28:29;127.43;;;29.85;;
71667;SDS011;59504;54.806;9.640;2023-02-15T01:30:50;145.00;;;29.88;;
71667;SDS011;59504;54.806;9.640;2023-02-15T01:33:12;99.20;;;26.77;;
71667;SDS011;59504;54.806;9.640;2023-02-15T01:35:37;186.43;;;28.52;;
71667;SDS011;59504;54.806;9.640;2023-02-15T01:37:58;242.77;;;26.73;;
71667;SDS011;59504;54.806;9.640;2023-02-15T01:40:19;144.95;;;22.35;;
71667;SDS011;59504;54.806;9.640;2023-02-15T01:42:40;239.57;;;21.80;;
71667;SDS011;59504;54.806;9.640;2023-02-15T01:45:05;311.30;;;23.95;;
71667;SDS011;59504;54.806;9.640;2023-02-15T01:48:24;256.98;;;21.60;;
71667;SDS011;59504;54.806;9.640;2023-02-15T01:50:50;387.85;;;25.45;;
71667;SDS011;59504;54.806;9.640;2023-02-15T01:55:47;293.70;;;21.08;;
71667;SDS011;59504;54.806;9.640;2023-02-15T01:58:15;247.80;;;22.25;;
71667;SDS011;59504;54.806;9.640;2023-02-15T02:00:37;272.52;;;23.17;;
71667;SDS011;59504;54.806;9.640;2023-02-15T02:02:58;216.63;;;21.73;;
71667;SDS011;59504;54.806;9.640;2023-02-15T02:05:19;142.20;;;18.58;;
71667;SDS011;59504;54.806;9.640;2023-02-15T02:07:41;206.23;;;19.83;;
71667;SDS011;59504;54.806;9.640;2023-02-15T02:10:05;126.47;;;16.50;;
71667;SDS011;59504;54.806;9.640;2023-02-15T02:12:27;137.68;;;17.55;;
71667;SDS011;59504;54.806;9.640;2023-02-15T02:14:48;93.72;;;16.80;;
71667;SDS011;59504;54.806;9.640;2023-02-15T02:20:22;105.85;;;16.23;;
71667;SDS011;59504;54.806;9.640;2023-02-15T02:27:41;255.50;;;19.88;;
71667;SDS011;59504;54.806;9.640;2023-02-15T02:35:36;129.60;;;15.02;;
71667;SDS011;59504;54.806;9.640;2023-02-15T02:43:33;142.85;;;16.23;;
71667;SDS011;59504;54.806;9.640;2023-02-15T02:46:30;115.00;;;15.65;;
71667;SDS011;59504;54.806;9.640;2023-02-15T02:49:12;173.50;;;19.02;;
71667;SDS011;59504;54.806;9.640;2023-02-15T02:51:33;136.90;;;16.13;;
71667;SDS011;59504;54.806;9.640;2023-02-15T02:53:55;122.65;;;18.02;;
71667;SDS011;59504;54.806;9.640;2023-02-15T02:56:24;98.57;;;15.82;;
71667;SDS011;59504;54.806;9.640;2023-02-15T02:58:51;135.70;;;16.13;;
71667;SDS011;59504;54.806;9.640;2023-02-15T03:03:51;149.77;;;17.60;;
71667;SDS011;59504;54.806;9.640;2023-02-15T03:06:21;137.30;;;15.85;;
71667;SDS011;59504;54.806;9.640;2023-02-15T03:09:14;82.72;;;13.77;;
71667;SDS011;59504;54.806;9.640;2023-02-15T03:11:42;71.60;;;13.32;;
71667;SDS011;59504;54.806;9.640;2023-02-15T03:14:04;136.32;;;14.15;;
71667;SDS011;59504;54.806;9.640;2023-02-15T03:16:25;164.32;;;17.05;;
71667;SDS011;59504;54.806;9.640;2023-02-15T03:18:48;136.73;;;16.48;;
71667;SDS011;59504;54.806;9.640;2023-02-15T03:21:19;146.48;;;16.77;;
71667;SDS011;59504;54.806;9.640;2023-02-15T03:23:44;151.40;;;18.05;;
71667;SDS011;59504;54.806;9.640;2023-02-15T03:26:05;134.60;;;16.00;;
71667;SDS011;59504;54.806;9.640;2023-02-15T03:28:33;123.35;;;16.85;;
71667;SDS011;59504;54.806;9.640;2023-02-15T03:31:00;137.38;;;15.65;;
71667;SDS011;59504;54.806;9.640;2023-02-15T03:33:24;74.43;;;13.70;;
71667;SDS011;59504;54.806;9.640;2023-02-15T03:38:38;200.32;;;18.55;;
71667;SDS011;59504;54.806;9.640;2023-02-15T03:41:04;91.25;;;15.98;;
71667;SDS011;59504;54.806;9.640;2023-02-15T03:43:32;164.57;;;18.25;;
71667;SDS011;59504;54.806;9.640;2023-02-15T03:46:06;69.75;;;13.52;;
71667;SDS011;59504;54.806;9.640;2023-02-15T03:48:45;124.82;;;15.70;;
71667;SDS011;59504;54.806;9.640;2023-02-15T03:51:15;115.78;;;14.85;;
71667;SDS011;59504;54.806;9.640;2023-02-15T03:53:54;153.43;;;16.05;;
71667;SDS011;59504;54.806;9.640;2023-02-15T03:56:16;236.73;;;17.85;;
71667;SDS011;59504;54.806;9.640;2023-02-15T03:58:37;108.70;;;14.77;;
71667;SDS011;59504;54.806;9.640;2023-02-15T04:01:26;215.60;;;16.23;;
71667;SDS011;59504;54.806;9.640;2023-02-15T04:04:20;103.03;;;14.15;;
71667;SDS011;59504;54.806;9.640;2023-02-15T04:06:42;104.22;;;13.75;;
71667;SDS011;59504;54.806;9.640;2023-02-15T04:09:03;133.18;;;14.73;;
71667;SDS011;59504;54.806;9.640;2023-02-15T04:11:43;148.65;;;14.25;;
71667;SDS011;59504;54.806;9.640;2023-02-15T04:14:03;65.90;;;13.82;;
71667;SDS011;59504;54.806;9.640;2023-02-15T04:16:44;86.88;;;13.75;;
71667;SDS011;59504;54.806;9.640;2023-02-15T04:19:05;163.82;;;16.90;;
71667;SDS011;59504;54.806;9.640;2023-02-15T04:21:45;103.80;;;13.65;;
71667;SDS011;59504;54.806;9.640;2023-02-15T04:24:24;127.07;;;14.35;;
71667;SDS011;59504;54.806;9.640;2023-02-15T04:27:04;123.53;;;14.55;;
71667;SDS011;59504;54.806;9.640;2023-02-15T04:29:26;115.05;;;13.82;;
71667;SDS011;59504;54.806;9.640;2023-02-15T04:31:47;134.00;;;14.23;;
71667;SDS011;59504;54.806;9.640;2023-02-15T04:34:09;92.72;;;14.00;;
71667;SDS011;59504;54.806;9.640;2023-02-15T04:36:30;111.55;;;14.75;;
71667;SDS011;59504;54.806;9.640;2023-02-15T04:38:51;75.82;;;13.25;;
71667;SDS011;59504;54.806;9.640;2023-02-15T04:41:12;87.75;;;15.50;;
71667;SDS011;59504;54.806;9.640;2023-02-15T04:43:33;40.67;;;13.32;;
71667;SDS011;59504;54.806;9.640;2023-02-15T04:45:54;86.35;;;15.07;;
71667;SDS011;59504;54.806;9.640;2023-02-15T04:48:15;77.07;;;14.07;;
71667;SDS011;59504;54.806;9.640;2023-02-15T04:50:37;128.52;;;14.98;;
71667;SDS011;59504;54.806;9.640;2023-02-15T04:52:58;48.10;;;12.85;;
71667;SDS011;59504;54.806;9.640;2023-02-15T04:55:18;66.65;;;12.45;;
71667;SDS011;59504;54.806;9.640;2023-02-15T04:57:39;70.55;;;13.65;;
71667;SDS011;59504;54.806;9.640;2023-02-15T05:00:00;35.97;;;12.75;;
71667;SDS011;59504;54.806;9.640;2023-02-15T05:02:21;55.78;;;13.45;;
71667;SDS011;59504;54.806;9.640;2023-02-15T05:04:42;73.07;;;13.70;;
71667;SDS011;59504;54.806;9.640;2023-02-15T05:07:03;127.45;;;14.80;;
71667;SDS011;59504;54.806;9.640;2023-02-15T05:09:24;44.75;;;13.85;;
71667;SDS011;59504;54.806;9.640;2023-02-15T05:11:45;77.40;;;14.43;;
71667;SDS011;59504;54.806;9.640;2023-02-15T05:14:06;59.85;;;13.85;;
71667;SDS011;59504;54.806;9.640;2023-02-15T05:16:27;50.13;;;12.73;;
71667;SDS011;59504;54.806;9.640;2023-02-15T05:18:48;47.85;;;13.30;;
71667;SDS011;59504;54.806;9.640;2023-02-15T05:21:09;95.80;;;14.57;;
71667;SDS011;59504;54.806;9.640;2023-02-15T05:23:30;64.15;;;13.50;;
71667;SDS011;59504;54.806;9.640;2023-02-15T05:25:51;121.05;;;16.35;;
71667;SDS011;59504;54.806;9.640;2023-02-15T05:28:31;242.43;;;53.35;;
71667;SDS011;59504;54.806;9.640;2023-02-15T05:31:11;71.68;;;22.50;;
71667;SDS011;59504;54.806;9.640;2023-02-15T05:33:37;60.75;;;17.80;;
71667;SDS011;59504;54.806;9.640;2023-02-15T05:35:59;83.30;;;15.35;;
71667;SDS011;59504;54.806;9.640;2023-02-15T05:38:20;46.85;;;13.65;;
71667;SDS011;59504;54.806;9.640;2023-02-15T05:40:41;57.55;;;13.18;;
71667;SDS011;59504;54.806;9.640;2023-02-15T05:43:08;23.75;;;12.13;;
71667;SDS011;59504;54.806;9.640;2023-02-15T05:45:29;50.28;;;13.57;;
71667;SDS011;59504;54.806;9.640;2023-02-15T05:47:50;50.90;;;13.40;;
71667;SDS011;59504;54.806;9.640;2023-02-15T05:50:11;46.70;;;11.77;;
71667;SDS011;59504;54.806;9.640;2023-02-15T05:52:32;32.30;;;12.20;;
71667;SDS011;59504;54.806;9.640;2023-02-15T05:54:52;36.60;;;12.75;;
71667;SDS011;59504;54.806;9.640;2023-02-15T05:57:14;41.40;;;12.15;;
71667;SDS011;59504;54.806;9.640;2023-02-15T05:59:35;67.32;;;12.50;;
71667;SDS011;59504;54.806;9.640;2023-02-15T06:01:56;43.85;;;11.98;;
71667;SDS011;59504;54.806;9.640;2023-02-15T06:04:17;42.28;;;12.23;;
71667;SDS011;59504;54.806;9.640;2023-02-15T06:06:37;65.00;;;13.35;;
71667;SDS011;59504;54.806;9.640;2023-02-15T06:08:58;50.72;;;12.63;;
71667;SDS011;59504;54.806;9.640;2023-02-15T06:11:19;42.00;;;12.23;;
71667;SDS011;59504;54.806;9.640;2023-02-15T06:13:40;52.95;;;12.07;;
71667;SDS011;59504;54.806;9.640;2023-02-15T06:16:01;41.33;;;11.40;;
71667;SDS011;59504;54.806;9.640;2023-02-15T06:18:25;100.80;;;13.00;;
71667;SDS011;59504;54.806;9.640;2023-02-15T06:20:46;47.25;;;13.02;;
71667;SDS011;59504;54.806;9.640;2023-02-15T06:23:07;38.33;;;12.55;;
71667;SDS011;59504;54.806;9.640;2023-02-15T06:25:28;55.47;;;13.05;;
71667;SDS011;59504;54.806;9.640;2023-02-15T06:27:49;54.60;;;12.43;;
71667;SDS011;59504;54.806;9.640;2023-02-15T06:30:10;84.78;;;13.55;;
71667;SDS011;59504;54.806;9.640;2023-02-15T06:32:32;56.63;;;13.68;;
71667;SDS011;59504;54.806;9.640;2023-02-15T06:34:53;68.30;;;13.38;;
71667;SDS011;59504;54.806;9.640;2023-02-15T06:37:13;90.32;;;15.70;;
71667;SDS011;59504;54.806;9.640;2023-02-15T06:39:34;87.28;;;15.45;;
71667;SDS011;59504;54.806;9.640;2023-02-15T06:41:55;49.30;;;13.25;;
71667;SDS011;59504;54.806;9.640;2023-02-15T06:44:17;74.18;;;13.18;;
71667;SDS011;59504;54.806;9.640;2023-02-15T06:46:38;34.05;;;12.57;;
71667;SDS011;59504;54.806;9.640;2023-02-15T06:48:59;88.38;;;14.30;;
71667;SDS011;59504;54.806;9.640;2023-02-15T06:51:20;60.50;;;13.50;;
71667;SDS011;59504;54.806;9.640;2023-02-15T06:53:41;70.20;;;13.55;;
71667;SDS011;59504;54.806;9.640;2023-02-15T06:56:03;84.20;;;12.63;;
71667;SDS011;59504;54.806;9.640;2023-02-15T06:58:26;31.85;;;12.57;;
71667;SDS011;59504;54.806;9.640;2023-02-15T07:00:47;45.58;;;10.43;;
71667;SDS011;59504;54.806;9.640;2023-02-15T07:03:09;71.35;;;12.88;;
71667;SDS011;59504;54.806;9.640;2023-02-15T07:05:34;84.80;;;12.73;;
71667;SDS011;59504;54.806;9.640;2023-02-15T07:07:54;75.45;;;11.07;;
71667;SDS011;59504;54.806;9.640;2023-02-15T07:10:16;68.90;;;10.73;;
71667;SDS011;59504;54.806;9.640;2023-02-15T07:12:37;58.60;;;10.70;;
71667;SDS011;59504;54.806;9.640;2023-02-15T07:15:05;57.30;;;12.32;;
71667;SDS011;59504;54.806;9.640;2023-02-15T07:17:26;84.53;;;13.30;;
71667;SDS011;59504;54.806;9.640;2023-02-15T07:19:48;69.32;;;12.13;;
71667;SDS011;59504;54.806;9.640;2023-02-15T07:22:09;32.33;;;10.43;;
71667;SDS011;59504;54.806;9.640;2023-02-15T07:24:30;28.45;;;10.63;;
71667;SDS011;59504;54.806;9.640;2023-02-15T07:26:51;49.15;;;11.05;;
71667;SDS011;59504;54.806;9.640;2023-02-15T07:29:12;91.45;;;12.45;;
71667;SDS011;59504;54.806;9.640;2023-02-15T07:31:33;78.15;;;12.13;;
71667;SDS011;59504;54.806;9.640;2023-02-15T07:33:54;58.20;;;11.35;;
71667;SDS011;59504;54.806;9.640;2023-02-15T07:36:14;65.03;;;12.13;;
71667;SDS011;59504;54.806;9.640;2023-02-15T07:38:36;59.03;;;12.27;;
71667;SDS011;59504;54.806;9.640;2023-02-15T07:40:58;83.57;;;11.55;;
71667;SDS011;59504;54.806;9.640;2023-02-15T07:43:20;71.50;;;11.52;;
71667;SDS011;59504;54.806;9.640;2023-02-15T07:45:41;36.78;;;11.35;;
71667;SDS011;59504;54.806;9.640;2023-02-15T07:48:02;42.22;;;10.43;;
71667;SDS011;59504;54.806;9.640;2023-02-15T07:50:23;55.65;;;10.27;;
71667;SDS011;59504;54.806;9.640;2023-02-15T07:52:44;70.82;;;12.73;;
71667;SDS011;59504;54.806;9.640;2023-02-15T07:55:05;76.82;;;11.88;;
71667;SDS011;59504;54.806;9.640;2023-02-15T07:57:26;119.63;;;13.38;;
71667;SDS011;59504;54.806;9.640;2023-02-15T07:59:48;100.40;;;12.32;;
71667;SDS011;59504;54.806;9.640;2023-02-15T08:02:09;110.68;;;12.15;;
71667;SDS011;59504;54.806;9.640;2023-02-15T08:04:31;57.10;;;12.15;;
71667;SDS011;59504;54.806;9.640;2023-02-15T08:06:52;77.57;;;10.77;;
71667;SDS011;59504;54.806;9.640;2023-02-15T08:09:16;83.00;;;11.50;;
71667;SDS011;59504;54.806;9.640;2023-02-15T08:11:37;101.32;;;12.90;;
71667;SDS011;59504;54.806;9.640;2023-02-15T08:19:03;51.10;;;11.75;;
71667;SDS011;59504;54.806;9.640;2023-02-15T08:21:33;104.38;;;12.15;;
71667;SDS011;59504;54.806;9.640;2023-02-15T08:23:55;122.07;;;12.45;;
71667;SDS011;59504;54.806;9.640;2023-02-15T08:26:17;84.63;;;12.77;;
71667;SDS011;59504;54.806;9.640;2023-02-15T08:28:38;98.90;;;12.90;;
71667;SDS011;59504;54.806;9.640;2023-02-15T08:31:07;65.28;;;11.27;;
71667;SDS011;59504;54.806;9.640;2023-02-15T08:33:29;83.57;;;12.07;;
71667;SDS011;59504;54.806;9.640;2023-02-15T08:35:50;100.60;;;13.38;;
71667;SDS011;59504;54.806;9.640;2023-02-15T08:38:11;70.05;;;12.93;;
71667;SDS011;59504;54.806;9.640;2023-02-15T08:40:32;105.50;;;13.38;;
71667;SDS011;59504;54.806;9.640;2023-02-15T08:42:54;101.63;;;13.15;;
71667;SDS011;59504;54.806;9.640;2023-02-15T08:45:15;76.13;;;12.35;;
71667;SDS011;59504;54.806;9.640;2023-02-15T08:47:39;125.07;;;13.43;;
71667;SDS011;59504;54.806;9.640;2023-02-15T08:49:59;67.75;;;11.75;;
71667;SDS011;59504;54.806;9.640;2023-02-15T08:52:20;121.63;;;12.77;;
71667;SDS011;59504;54.806;9.640;2023-02-15T08:54:41;132.82;;;13.63;;
71667;SDS011;59504;54.806;9.640;2023-02-15T08:57:02;236.95;;;14.43;;
71667;SDS011;59504;54.806;9.640;2023-02-15T08:59:23;68.35;;;11.90;;
71667;SDS011;59504;54.806;9.640;2023-02-15T09:01:47;51.08;;;11.82;;
71667;SDS011;59504;54.806;9.640;2023-02-15T09:04:10;88.18;;;12.70;;
71667;SDS011;59504;54.806;9.640;2023-02-15T09:06:32;56.47;;;11.00;;
71667;SDS011;59504;54.806;9.640;2023-02-15T09:08:54;132.05;;;12.45;;
71667;SDS011;59504;54.806;9.640;2023-02-15T09:11:37;157.02;;;13.27;;
71667;SDS011;59504;54.806;9.640;2023-02-15T09:13:59;38.50;;;11.65;;
71667;SDS011;59504;54.806;9.640;2023-02-15T09:16:23;121.07;;;14.32;;
71667;SDS011;59504;54.806;9.640;2023-02-15T09:18:45;53.95;;;12.88;;
71667;SDS011;59504;54.806;9.640;2023-02-15T09:21:08;87.10;;;11.27;;
71667;SDS011;59504;54.806;9.640;2023-02-15T09:23:30;162.70;;;12.70;;
71667;SDS011;59504;54.806;9.640;2023-02-15T09:25:51;152.52;;;13.30;;
71667;SDS011;59504;54.806;9.640;2023-02-15T09:28:15;71.50;;;11.30;;
71667;SDS011;59504;54.806;9.640;2023-02-15T09:32:57;139.40;;;11.57;;
71667;SDS011;59504;54.806;9.640;2023-02-15T09:35:18;141.73;;;12.10;;
71667;SDS011;59504;54.806;9.640;2023-02-15T09:37:39;119.97;;;11.88;;
71667;SDS011;59504;54.806;9.640;2023-02-15T09:39:59;130.63;;;10.85;;
71667;SDS011;59504;54.806;9.640;2023-02-15T09:45:30;92.53;;;11.18;;
71667;SDS011;59504;54.806;9.640;2023-02-15T09:56:19;127.15;;;11.60;;
71667;SDS011;59504;54.806;9.640;2023-02-15T10:09:22;83.50;;;11.18;;
71667;SDS011;59504;54.806;9.640;2023-02-15T10:26:18;126.30;;;10.70;;
71667;SDS011;59504;54.806;9.640;2023-02-15T10:28:48;94.20;;;11.35;;
71667;SDS011;59504;54.806;9.640;2023-02-15T10:31:28;58.60;;;10.65;;
71667;SDS011;59504;54.806;9.640;2023-02-15T10:34:07;71.78;;;10.77;;
71667;SDS011;59504;54.806;9.640;2023-02-15T10:36:47;90.60;;;11.23;;
71667;SDS011;59504;54.806;9.640;2023-02-15T10:45:12;181.55;;;13.25;;
71667;SDS011;59504;54.806;9.640;2023-02-15T10:51:02;61.85;;;11.15;;
71667;SDS011;59504;54.806;9.640;2023-02-15T10:58:41;60.25;;;11.95;;
71667;SDS011;59504;54.806;9.640;2023-02-15T11:06:23;62.15;;;12.43;;
71667;SDS011;59504;54.806;9.640;2023-02-15T11:08:51;69.57;;;14.13;;
71667;SDS011;59504;54.806;9.640;2023-02-15T11:11:25;62.92;;;12.65;;
71667;SDS011;59504;54.806;9.640;2023-02-15T11:13:57;106.45;;;13.30;;
71667;SDS011;59504;54.806;9.640;2023-02-15T11:16:33;47.97;;;12.75;;
71667;SDS011;59504;54.806;9.640;2023-02-15T11:19:03;53.92;;;12.68;;
71667;SDS011;59504;54.806;9.640;2023-02-15T11:21:49;34.58;;;12.27;;
71667;SDS011;59504;54.806;9.640;2023-02-15T11:24:14;28.17;;;12.90;;
71667;SDS011;59504;54.806;9.640;2023-02-15T11:26:54;34.83;;;12.52;;
71667;SDS011;59504;54.806;9.640;2023-02-15T11:29:32;40.97;;;13.45;;
71667;SDS011;59504;54.806;9.640;2023-02-15T11:32:03;37.03;;;12.85;;
71667;SDS011;59504;54.806;9.640;2023-02-15T11:34:39;108.32;;;15.27;;
71667;SDS011;59504;54.806;9.640;2023-02-15T11:37:08;36.38;;;13.65;;
71667;SDS011;59504;54.806;9.640;2023-02-15T11:39:33;49.78;;;14.43;;
71667;SDS011;59504;54.806;9.640;2023-02-15T11:41:56;66.13;;;14.20;;
71667;SDS011;59504;54.806;9.640;2023-02-15T11:44:38;46.47;;;13.77;;
71667;SDS011;59504;54.806;9.640;2023-02-15T11:47:20;56.70;;;13.30;;
71667;SDS011;59504;54.806;9.640;2023-02-15T11:49:41;28.08;;;13.30;;
71667;SDS011;59504;54.806;9.640;2023-02-15T11:52:05;29.33;;;13.93;;
71667;SDS011;59504;54.806;9.640;2023-02-15T11:54:28;48.05;;;15.05;;
71667;SDS011;59504;54.806;9.640;2023-02-15T11:56:52;28.45;;;15.10;;
71667;SDS011;59504;54.806;9.640;2023-02-15T11:59:21;52.80;;;15.20;;
71667;SDS011;59504;54.806;9.640;2023-02-15T12:01:49;63.92;;;14.38;;
71667;SDS011;59504;54.806;9.640;2023-02-15T12:04:34;29.65;;;14.00;;
71667;SDS011;59504;54.806;9.640;2023-02-15T12:07:20;30.55;;;13.38;;
71667;SDS011;59504;54.806;9.640;2023-02-15T12:09:51;43.28;;;13.45;;
71667;SDS011;59504;54.806;9.640;2023-02-15T12:12:20;35.30;;;13.68;;
71667;SDS011;59504;54.806;9.640;2023-02-15T12:14:50;24.42;;;13.02;;
71667;SDS011;59504;54.806;9.640;2023-02-15T12:17:12;65.53;;;14.68;;
71667;SDS011;59504;54.806;9.640;2023-02-15T12:19:37;24.90;;;13.32;;
71667;SDS011;59504;54.806;9.640;2023-02-15T12:22:01;28.55;;;13.48;;
71667;SDS011;59504;54.806;9.640;2023-02-15T12:24:25;23.30;;;13.43;;
71667;SDS011;59504;54.806;9.640;2023-02-15T12:26:59;30.45;;;13.75;;
71667;SDS011;59504;54.806;9.640;2023-02-15T12:29:43;43.67;;;14.45;;
71667;SDS011;59504;54.806;9.640;2023-02-15T12:32:25;48.88;;;14.75;;
71667;SDS011;59504;54.806;9.640;2023-02-15T12:37:51;30.00;;;13.23;;
71667;SDS011;59504;54.806;9.640;2023-02-15T12:40:20;26.88;;;13.70;;
71667;SDS011;59504;54.806;9.640;2023-02-15T12:42:43;37.70;;;13.77;;
71667;SDS011;59504;54.806;9.640;2023-02-15T12:45:19;30.80;;;15.02;;
71667;SDS011;59504;54.806;9.640;2023-02-15T12:47:48;60.03;;;14.45;;
71667;SDS011;59504;54.806;9.640;2023-02-15T12:50:38;61.40;;;16.08;;
71667;SDS011;59504;54.806;9.640;2023-02-15T12:53:14;29.88;;;14.30;;
71667;SDS011;59504;54.806;9.640;2023-02-15T12:55:50;32.90;;;15.25;;
71667;SDS011;59504;54.806;9.640;2023-02-15T12:58:16;30.98;;;14.18;;
71667;SDS011;59504;54.806;9.640;2023-02-15T13:00:40;29.40;;;14.68;;
71667;SDS011;59504;54.806;9.640;2023-02-15T13:03:01;29.63;;;15.82;;
71667;SDS011;59504;54.806;9.640;2023-02-15T13:08:03;31.55;;;15.77;;
71667;SDS011;59504;54.806;9.640;2023-02-15T13:11:21;29.13;;;14.77;;
71667;SDS011;59504;54.806;9.640;2023-02-15T13:13:19;42.80;;;16.27;;
71667;SDS011;59504;54.806;9.640;2023-02-15T13:15:44;37.67;;;15.57;;
71667;SDS011;59504;54.806;9.640;2023-02-15T13:18:16;29.92;;;15.82;;
71667;SDS011;59504;54.806;9.640;2023-02-15T13:20:40;29.10;;;16.83;;
71667;SDS011;59504;54.806;9.640;2023-02-15T13:23:03;25.70;;;15.35;;
71667;SDS011;59504;54.806;9.640;2023-02-15T13:25:38;27.27;;;15.75;;
71667;SDS011;59504;54.806;9.640;2023-02-15T13:28:09;33.78;;;17.08;;
71667;SDS011;59504;54.806;9.640;2023-02-15T13:30:35;25.50;;;15.27;;
71667;SDS011;59504;54.806;9.640;2023-02-15T13:33:00;35.00;;;16.23;;
71667;SDS011;59504;54.806;9.640;2023-02-15T13:35:24;45.30;;;16.55;;
71667;SDS011;59504;54.806;9.640;2023-02-15T13:43:05;47.88;;;17.27;;
71667;SDS011;59504;54.806;9.640;2023-02-15T13:48:18;27.73;;;15.15;;
71667;SDS011;59504;54.806;9.640;2023-02-15T13:50:56;35.33;;;15.82;;
71667;SDS011;59504;54.806;9.640;2023-02-15T14:01:15;48.78;;;19.33;;
71667;SDS011;59504;54.806;9.640;2023-02-15T14:09:29;35.00;;;18.48;;
71667;SDS011;59504;54.806;9.640;2023-02-15T14:17:15;40.25;;;19.67;;
71667;SDS011;59504;54.806;9.640;2023-02-15T14:19:52;31.88;;;17.08;;
71667;SDS011;59504;54.806;9.640;2023-02-15T14:27:45;42.13;;;19.02;;
71667;SDS011;59504;54.806;9.640;2023-02-15T14:30:18;39.97;;;19.90;;
71667;SDS011;59504;54.806;9.640;2023-02-15T14:32:47;48.95;;;19.58;;
71667;SDS011;59504;54.806;9.640;2023-02-15T14:35:13;34.63;;;19.85;;
71667;SDS011;59504;54.806;9.640;2023-02-15T14:48:52;37.97;;;21.48;;
71667;SDS011;59504;54.806;9.640;2023-02-15T14:54:08;51.50;;;24.83;;
71667;SDS011;59504;54.806;9.640;2023-02-15T14:56:30;45.60;;;23.17;;
71667;SDS011;59504;54.806;9.640;2023-02-15T15:01:12;46.97;;;23.50;;
71667;SDS011;59504;54.806;9.640;2023-02-15T15:03:33;45.03;;;22.05;;
71667;SDS011;59504;54.806;9.640;2023-02-15T15:05:55;45.70;;;21.45;;
71667;SDS011;59504;54.806;9.640;2023-02-15T15:08:25;46.63;;;22.95;;
71667;SDS011;59504;54.806;9.640;2023-02-15T15:10:50;45.90;;;23.23;;
71667;SDS011;59504;54.806;9.640;2023-02-15T15:13:34;63.08;;;27.52;;
71667;SDS011;59504;54.806;9.640;2023-02-15T15:18:50;54.22;;;27.55;;
71667;SDS011;59504;54.806;9.640;2023-02-15T15:21:11;50.90;;;26.67;;
71667;SDS011;59504;54.806;9.640;2023-02-15T15:23:52;54.88;;;25.95;;
71667;SDS011;59504;54.806;9.640;2023-02-15T15:26:31;59.45;;;26.92;;
71667;SDS011;59504;54.806;9.640;2023-02-15T15:29:01;67.55;;;27.33;;
71667;SDS011;59504;54.806;9.640;2023-02-15T15:44:57;50.25;;;26.55;;
71667;SDS011;59504;54.806;9.640;2023-02-15T15:47:45;52.22;;;26.67;;
71667;SDS011;59504;54.806;9.640;2023-02-15T15:50:20;52.00;;;26.27;;
71667;SDS011;59504;54.806;9.640;2023-02-15T15:52:49;51.85;;;26.02;;
71667;SDS011;59504;54.806;9.640;2023-02-15T15:55:14;48.25;;;25.48;;
71667;SDS011;59504;54.806;9.640;2023-02-15T15:57:38;56.03;;;25.95;;
71667;SDS011;59504;54.806;9.640;2023-02-15T16:00:02;49.55;;;26.50;;
71667;SDS011;59504;54.806;9.640;2023-02-15T16:02:23;55.63;;;26.40;;
71667;SDS011;59504;54.806;9.640;2023-02-15T16:04:44;53.67;;;28.02;;
71667;SDS011;59504;54.806;9.640;2023-02-15T16:09:39;56.35;;;27.80;;
71667;SDS011;59504;54.806;9.640;2023-02-15T16:12:00;48.40;;;25.63;;
71667;SDS011;59504;54.806;9.640;2023-02-15T16:14:30;58.92;;;28.10;;
71667;SDS011;59504;54.806;9.640;2023-02-15T16:16:56;50.88;;;26.17;;
71667;SDS011;59504;54.806;9.640;2023-02-15T16:19:20;61.08;;;28.98;;
71667;SDS011;59504;54.806;9.640;2023-02-15T16:21:46;62.80;;;27.98;;
71667;SDS011;59504;54.806;9.640;2023-02-15T16:29:23;67.13;;;28.40;;
71667;SDS011;59504;54.806;9.640;2023-02-15T16:34:57;75.60;;;27.70;;
71667;SDS011;59504;54.806;9.640;2023-02-15T16:37:20;74.43;;;28.65;;
71667;SDS011;59504;54.806;9.640;2023-02-15T16:39:44;60.95;;;30.02;;
71667;SDS011;59504;54.806;9.640;2023-02-15T16:42:07;71.82;;;29.45;;
71667;SDS011;59504;54.806;9.640;2023-02-15T16:44:30;68.07;;;29.48;;
71667;SDS011;59504;54.806;9.640;2023-02-15T16:46:53;73.28;;;33.00;;
71667;SDS011;59504;54.806;9.640;2023-02-15T16:49:24;67.82;;;29.58;;
71667;SDS011;59504;54.806;9.640;2023-02-15T16:51:55;76.18;;;30.63;;
71667;SDS011;59504;54.806;9.640;2023-02-15T16:54:19;82.50;;;31.80;;
71667;SDS011;59504;54.806;9.640;2023-02-15T16:56:43;61.92;;;29.90;;
71667;SDS011;59504;54.806;9.640;2023-02-15T16:59:14;70.35;;;31.30;;
71667;SDS011;59504;54.806;9.640;2023-02-15T17:01:52;82.70;;;33.08;;
71667;SDS011;59504;54.806;9.640;2023-02-15T17:06:57;70.30;;;32.35;;
71667;SDS011;59504;54.806;9.640;2023-02-15T17:09:39;86.70;;;35.28;;